sensor_id;sensor_type;location;lat;lon;timestamp;P1;durP1;ratioP1;P2;durP2;ratioP2
2129;SDS011;1071;52.544;13.374;2023-05-16T00:00:56;21.90;;;15.30;;
2129;SDS011;1071;52.544;13.374;2023-05-16T00:03:23;11.63;;;10.30;;
2129;SDS011;1071;52.544;13.374;2023-05-16T00:05:51;12.53;;;11.37;;
2129;SDS011;1071;52.544;13.374;2023-05-16T00:08:18;10.87;;;9.97;;
2129;SDS011;1071;52.544;13.374;2023-05-16T00:10:45;12.03;;;11.03;;
2129;SDS011;1071;52.544;13.374;2023-05-16T00:13:14;9.90;;;9.10;;
2129;SDS011;1071;52.544;13.374;2023-05-16T00:15:46;9.97;;;9.17;;
2129;SDS011;1071;52.544;13.374;2023-05-16T00:18:13;9.40;;;8.60;;
2129;SDS011;1071;52.544;13.374;2023-05-16T00:20:43;9.77;;;8.97;;
2129;SDS011;1071;52.544;13.374;2023-05-16T00:23:11;12.00;;;11.00;;
2129;SDS011;1071;52.544;13.374;2023-05-16T00:25:38;10.33;;;9.33;;
2129;SDS011;1071;52.544;13.374;2023-05-16T00:28:05;10.90;;;10.03;;
2129;SDS011;1071;52.544;13.374;2023-05-16T00:30:34;9.93;;;9.17;;
2129;SDS011;1071;52.544;13.374;2023-05-16T00:33:01;10.10;;;9.40;;
2129;SDS011;1071;52.544;13.374;2023-05-16T00:35:30;10.30;;;9.40;;
2129;SDS011;1071;52.544;13.374;2023-05-16T00:37:57;10.60;;;9.70;;
2129;SDS011;1071;52.544;13.374;2023-05-16T00:40:25;12.20;;;11.10;;
2129;SDS011;1071;52.544;13.374;2023-05-16T00:42:52;10.60;;;9.80;;
2129;SDS011;1071;52.544;13.374;2023-05-16T00:45:19;11.87;;;10.93;;
2129;SDS011;1071;52.544;13.374;2023-05-16T00:47:48;12.67;;;11.60;;
2129;SDS011;1071;52.544;13.374;2023-05-16T00:50:16;10.13;;;9.30;;
2129;SDS011;1071;52.544;13.374;2023-05-16T00:52:44;11.73;;;10.63;;
2129;SDS011;1071;52.544;13.374;2023-05-16T00:55:13;11.10;;;10.20;;
2129;SDS011;1071;52.544;13.374;2023-05-16T00:57:40;12.83;;;11.77;;
2129;SDS011;1071;52.544;13.374;2023-05-16T01:00:08;10.20;;;9.40;;
2129;SDS011;1071;52.544;13.374;2023-05-16T01:02:37;13.87;;;12.47;;
2129;SDS011;1071;52.544;13.374;2023-05-16T01:05:06;13.67;;;12.47;;
2129;SDS011;1071;52.544;13.374;2023-05-16T01:07:36;13.30;;;12.10;;
2129;SDS011;1071;52.544;13.374;2023-05-16T01:10:04;13.60;;;12.40;;
2129;SDS011;1071;52.544;13.374;2023-05-16T01:12:36;12.93;;;11.80;;
2129;SDS011;1071;52.544;13.374;2023-05-16T01:15:07;21.90;;;15.87;;
2129;SDS011;1071;52.544;13.374;2023-05-16T01:17:42;16.27;;;14.80;;
2129;SDS011;1071;52.544;13.374;2023-05-16T01:20:22;14.87;;;13.67;;
2129;SDS011;1071;52.544;13.374;2023-05-16T01:23:04;14.23;;;12.93;;
2129;SDS011;1071;52.544;13.374;2023-05-16T01:25:51;16.00;;;14.57;;
2129;SDS011;1071;52.544;13.374;2023-05-16T01:28:24;16.37;;;14.70;;
2129;SDS011;1071;52.544;13.374;2023-05-16T01:30:52;16.70;;;15.00;;
2129;SDS011;1071;52.544;13.374;2023-05-16T01:33:19;19.13;;;17.33;;
2129;SDS011;1071;52.544;13.374;2023-05-16T01:35:49;15.00;;;13.70;;
2129;SDS011;1071;52.544;13.374;2023-05-16T01:38:23;16.60;;;13.97;;
2129;SDS011;1071;52.544;13.374;2023-05-16T01:41:01;16.27;;;14.87;;
2129;SDS011;1071;52.544;13.374;2023-05-16T01:43:34;16.70;;;15.10;;
2129;SDS011;1071;52.544;13.374;2023-05-16T01:46:08;15.63;;;14.13;;
2129;SDS011;1071;52.544;13.374;2023-05-16T01:48:42;16.60;;;15.00;;
2129;SDS011;1071;52.544;13.374;2023-05-16T01:51:16;14.13;;;12.73;;
2129;SDS011;1071;52.544;13.374;2023-05-16T01:53:46;15.53;;;13.90;;
2129;SDS011;1071;52.544;13.374;2023-05-16T01:56:17;14.13;;;12.83;;
2129;SDS011;1071;52.544;13.374;2023-05-16T01:58:48;13.57;;;12.37;;
2129;SDS011;1071;52.544;13.374;2023-05-16T02:01:23;14.10;;;12.73;;
2129;SDS011;1071;52.544;13.374;2023-05-16T02:03:51;14.07;;;12.70;;
2129;SDS011;1071;52.544;13.374;2023-05-16T02:06:21;14.73;;;13.43;;
2129;SDS011;1071;52.544;13.374;2023-05-16T02:08:52;15.60;;;14.03;;
2129;SDS011;1071;52.544;13.374;2023-05-16T02:11:21;17.93;;;16.20;;
2129;SDS011;1071;52.544;13.374;2023-05-16T02:13:49;14.87;;;13.47;;
2129;SDS011;1071;52.544;13.374;2023-05-16T02:16:16;15.77;;;14.27;;
2129;SDS011;1071;52.544;13.374;2023-05-16T02:18:43;14.60;;;13.23;;
2129;SDS011;1071;52.544;13.374;2023-05-16T02:21:10;14.33;;;12.90;;
2129;SDS011;1071;52.544;13.374;2023-05-16T02:23:38;13.67;;;12.30;;
2129;SDS011;1071;52.544;13.374;2023-05-16T02:26:05;13.20;;;11.90;;
2129;SDS011;1071;52.544;13.374;2023-05-16T02:28:32;14.43;;;12.17;;
2129;SDS011;1071;52.544;13.374;2023-05-16T02:31:01;16.67;;;15.13;;
2129;SDS011;1071;52.544;13.374;2023-05-16T02:33:28;15.50;;;13.70;;
2129;SDS011;1071;52.544;13.374;2023-05-16T02:35:55;15.43;;;13.93;;
2129;SDS011;1071;52.544;13.374;2023-05-16T02:38:22;13.80;;;12.40;;
2129;SDS011;1071;52.544;13.374;2023-05-16T02:40:49;14.10;;;12.80;;
2129;SDS011;1071;52.544;13.374;2023-05-16T02:43:16;13.57;;;12.30;;
2129;SDS011;1071;52.544;13.374;2023-05-16T02:45:43;13.70;;;12.30;;
2129;SDS011;1071;52.544;13.374;2023-05-16T02:48:12;15.17;;;13.60;;
2129;SDS011;1071;52.544;13.374;2023-05-16T02:50:39;14.00;;;12.03;;
2129;SDS011;1071;52.544;13.374;2023-05-16T02:53:07;16.00;;;14.33;;
2129;SDS011;1071;52.544;13.374;2023-05-16T02:55:34;15.50;;;13.50;;
2129;SDS011;1071;52.544;13.374;2023-05-16T02:58:01;12.10;;;10.90;;
2129;SDS011;1071;52.544;13.374;2023-05-16T03:00:32;15.23;;;13.83;;
2129;SDS011;1071;52.544;13.374;2023-05-16T03:03:00;12.80;;;11.70;;
2129;SDS011;1071;52.544;13.374;2023-05-16T03:05:43;14.30;;;13.00;;
2129;SDS011;1071;52.544;13.374;2023-05-16T03:08:10;13.20;;;12.07;;
2129;SDS011;1071;52.544;13.374;2023-05-16T03:10:37;14.27;;;12.20;;
2129;SDS011;1071;52.544;13.374;2023-05-16T03:13:04;14.47;;;12.57;;
2129;SDS011;1071;52.544;13.374;2023-05-16T03:15:31;13.50;;;12.10;;
2129;SDS011;1071;52.544;13.374;2023-05-16T03:17:58;12.37;;;11.17;;
2129;SDS011;1071;52.544;13.374;2023-05-16T03:20:25;15.53;;;12.43;;
2129;SDS011;1071;52.544;13.374;2023-05-16T03:22:54;14.27;;;12.80;;
2129;SDS011;1071;52.544;13.374;2023-05-16T03:25:23;14.33;;;12.93;;
2129;SDS011;1071;52.544;13.374;2023-05-16T03:27:57;13.53;;;12.23;;
2129;SDS011;1071;52.544;13.374;2023-05-16T03:30:25;14.20;;;12.90;;
2129;SDS011;1071;52.544;13.374;2023-05-16T03:32:52;14.47;;;13.23;;
2129;SDS011;1071;52.544;13.374;2023-05-16T03:35:20;14.83;;;13.43;;
2129;SDS011;1071;52.544;13.374;2023-05-16T03:37:48;19.20;;;15.50;;
2129;SDS011;1071;52.544;13.374;2023-05-16T03:40:26;15.90;;;14.50;;
2129;SDS011;1071;52.544;13.374;2023-05-16T03:42:53;17.20;;;15.60;;
2129;SDS011;1071;52.544;13.374;2023-05-16T03:45:21;14.20;;;12.93;;
2129;SDS011;1071;52.544;13.374;2023-05-16T03:47:48;16.73;;;15.03;;
2129;SDS011;1071;52.544;13.374;2023-05-16T03:50:15;25.17;;;18.03;;
2129;SDS011;1071;52.544;13.374;2023-05-16T03:52:42;19.97;;;17.97;;
2129;SDS011;1071;52.544;13.374;2023-05-16T03:55:09;15.27;;;13.90;;
2129;SDS011;1071;52.544;13.374;2023-05-16T03:57:39;16.00;;;14.40;;
2129;SDS011;1071;52.544;13.374;2023-05-16T04:00:07;16.60;;;14.97;;
2129;SDS011;1071;52.544;13.374;2023-05-16T04:02:36;14.90;;;13.50;;
2129;SDS011;1071;52.544;13.374;2023-05-16T04:05:05;17.47;;;15.60;;
2129;SDS011;1071;52.544;13.374;2023-05-16T04:07:33;20.03;;;15.37;;
2129;SDS011;1071;52.544;13.374;2023-05-16T04:10:00;18.23;;;16.53;;
2129;SDS011;1071;52.544;13.374;2023-05-16T04:12:30;17.10;;;15.40;;
2129;SDS011;1071;52.544;13.374;2023-05-16T04:15:00;15.00;;;13.70;;
2129;SDS011;1071;52.544;13.374;2023-05-16T04:17:28;15.53;;;13.97;;
2129;SDS011;1071;52.544;13.374;2023-05-16T04:19:55;16.43;;;14.83;;
2129;SDS011;1071;52.544;13.374;2023-05-16T04:22:22;16.00;;;14.53;;
2129;SDS011;1071;52.544;13.374;2023-05-16T04:24:49;17.93;;;16.23;;
2129;SDS011;1071;52.544;13.374;2023-05-16T04:27:17;17.27;;;15.77;;
2129;SDS011;1071;52.544;13.374;2023-05-16T04:29:44;14.97;;;13.57;;
2129;SDS011;1071;52.544;13.374;2023-05-16T04:32:12;17.33;;;15.10;;
2129;SDS011;1071;52.544;13.374;2023-05-16T04:34:39;16.67;;;14.97;;
2129;SDS011;1071;52.544;13.374;2023-05-16T04:37:09;14.50;;;13.00;;
2129;SDS011;1071;52.544;13.374;2023-05-16T04:39:36;19.77;;;17.70;;
2129;SDS011;1071;52.544;13.374;2023-05-16T04:42:04;18.13;;;16.23;;
2129;SDS011;1071;52.544;13.374;2023-05-16T04:44:31;16.00;;;14.60;;
2129;SDS011;1071;52.544;13.374;2023-05-16T04:46:59;18.77;;;16.93;;
2129;SDS011;1071;52.544;13.374;2023-05-16T04:49:27;17.57;;;15.87;;
2129;SDS011;1071;52.544;13.374;2023-05-16T04:51:55;16.87;;;15.07;;
2129;SDS011;1071;52.544;13.374;2023-05-16T04:54:22;14.50;;;13.20;;
2129;SDS011;1071;52.544;13.374;2023-05-16T04:56:49;16.27;;;14.67;;
2129;SDS011;1071;52.544;13.374;2023-05-16T04:59:16;16.10;;;14.40;;
2129;SDS011;1071;52.544;13.374;2023-05-16T05:01:47;18.40;;;16.10;;
2129;SDS011;1071;52.544;13.374;2023-05-16T05:04:13;17.50;;;15.80;;
2129;SDS011;1071;52.544;13.374;2023-05-16T05:06:43;17.27;;;15.50;;
2129;SDS011;1071;52.544;13.374;2023-05-16T05:09:10;15.70;;;14.20;;
2129;SDS011;1071;52.544;13.374;2023-05-16T05:11:37;16.27;;;14.53;;
2129;SDS011;1071;52.544;13.374;2023-05-16T05:14:05;18.92;;;16.00;;
2129;SDS011;1071;52.544;13.374;2023-05-16T05:16:32;16.10;;;14.40;;
2129;SDS011;1071;52.544;13.374;2023-05-16T05:18:59;18.63;;;16.47;;
2129;SDS011;1071;52.544;13.374;2023-05-16T05:21:26;16.90;;;15.40;;
2129;SDS011;1071;52.544;13.374;2023-05-16T05:23:56;15.40;;;13.90;;
2129;SDS011;1071;52.544;13.374;2023-05-16T05:26:23;15.70;;;14.00;;
2129;SDS011;1071;52.544;13.374;2023-05-16T05:28:55;18.13;;;14.90;;
2129;SDS011;1071;52.544;13.374;2023-05-16T05:31:23;15.50;;;13.00;;
2129;SDS011;1071;52.544;13.374;2023-05-16T05:33:58;13.17;;;11.80;;
2129;SDS011;1071;52.544;13.374;2023-05-16T05:36:26;13.40;;;12.00;;
2129;SDS011;1071;52.544;13.374;2023-05-16T05:38:52;13.40;;;12.00;;
2129;SDS011;1071;52.544;13.374;2023-05-16T05:41:21;11.40;;;10.40;;
2129;SDS011;1071;52.544;13.374;2023-05-16T05:43:48;11.90;;;10.90;;
2129;SDS011;1071;52.544;13.374;2023-05-16T05:46:15;15.13;;;12.33;;
2129;SDS011;1071;52.544;13.374;2023-05-16T05:48:42;21.53;;;17.23;;
2129;SDS011;1071;52.544;13.374;2023-05-16T05:51:09;16.63;;;14.90;;
2129;SDS011;1071;52.544;13.374;2023-05-16T05:53:38;16.03;;;14.53;;
2129;SDS011;1071;52.544;13.374;2023-05-16T05:56:06;15.53;;;13.93;;
2129;SDS011;1071;52.544;13.374;2023-05-16T05:58:34;13.00;;;11.00;;
2129;SDS011;1071;52.544;13.374;2023-05-16T06:01:01;14.27;;;12.97;;
2129;SDS011;1071;52.544;13.374;2023-05-16T06:03:28;15.07;;;12.23;;
2129;SDS011;1071;52.544;13.374;2023-05-16T06:05:56;15.13;;;10.90;;
2129;SDS011;1071;52.544;13.374;2023-05-16T06:08:23;11.10;;;9.93;;
2129;SDS011;1071;52.544;13.374;2023-05-16T06:10:50;12.30;;;11.20;;
2129;SDS011;1071;52.544;13.374;2023-05-16T06:13:18;12.47;;;11.20;;
2129;SDS011;1071;52.544;13.374;2023-05-16T06:15:50;11.40;;;10.37;;
2129;SDS011;1071;52.544;13.374;2023-05-16T06:18:18;11.13;;;9.63;;
2129;SDS011;1071;52.544;13.374;2023-05-16T06:20:45;12.03;;;10.90;;
2129;SDS011;1071;52.544;13.374;2023-05-16T06:23:12;11.90;;;10.23;;
2129;SDS011;1071;52.544;13.374;2023-05-16T06:25:40;11.17;;;9.70;;
2129;SDS011;1071;52.544;13.374;2023-05-16T06:28:06;11.90;;;10.70;;
2129;SDS011;1071;52.544;13.374;2023-05-16T06:30:33;13.40;;;10.83;;
2129;SDS011;1071;52.544;13.374;2023-05-16T06:33:02;10.67;;;9.57;;
2129;SDS011;1071;52.544;13.374;2023-05-16T06:35:29;11.40;;;10.20;;
2129;SDS011;1071;52.544;13.374;2023-05-16T06:37:56;14.60;;;12.20;;
2129;SDS011;1071;52.544;13.374;2023-05-16T06:40:23;11.93;;;10.70;;
2129;SDS011;1071;52.544;13.374;2023-05-16T06:42:50;12.30;;;9.90;;
2129;SDS011;1071;52.544;13.374;2023-05-16T06:45:17;11.43;;;10.23;;
2129;SDS011;1071;52.544;13.374;2023-05-16T06:47:44;8.90;;;8.10;;
2129;SDS011;1071;52.544;13.374;2023-05-16T06:50:13;8.43;;;7.63;;
2129;SDS011;1071;52.544;13.374;2023-05-16T06:52:40;8.53;;;7.73;;
2129;SDS011;1071;52.544;13.374;2023-05-16T06:55:07;9.30;;;8.40;;
2129;SDS011;1071;52.544;13.374;2023-05-16T06:57:36;9.10;;;8.30;;
2129;SDS011;1071;52.544;13.374;2023-05-16T07:00:03;10.90;;;9.60;;
2129;SDS011;1071;52.544;13.374;2023-05-16T07:02:32;11.93;;;8.03;;
2129;SDS011;1071;52.544;13.374;2023-05-16T07:04:59;8.97;;;8.17;;
2129;SDS011;1071;52.544;13.374;2023-05-16T07:07:27;8.60;;;7.80;;
2129;SDS011;1071;52.544;13.374;2023-05-16T07:09:55;8.60;;;7.47;;
2129;SDS011;1071;52.544;13.374;2023-05-16T07:12:22;9.30;;;8.23;;
2129;SDS011;1071;52.544;13.374;2023-05-16T07:14:49;6.23;;;5.73;;
2129;SDS011;1071;52.544;13.374;2023-05-16T07:17:16;6.73;;;6.10;;
2129;SDS011;1071;52.544;13.374;2023-05-16T07:19:43;6.37;;;5.77;;
2129;SDS011;1071;52.544;13.374;2023-05-16T07:22:10;7.10;;;6.40;;
2129;SDS011;1071;52.544;13.374;2023-05-16T07:24:39;6.60;;;5.80;;
2129;SDS011;1071;52.544;13.374;2023-05-16T07:27:06;7.30;;;6.40;;
2129;SDS011;1071;52.544;13.374;2023-05-16T07:29:32;6.77;;;6.07;;
2129;SDS011;1071;52.544;13.374;2023-05-16T07:32:01;6.50;;;4.83;;
2129;SDS011;1071;52.544;13.374;2023-05-16T07:34:28;8.30;;;4.87;;
2129;SDS011;1071;52.544;13.374;2023-05-16T07:36:55;5.33;;;4.83;;
2129;SDS011;1071;52.544;13.374;2023-05-16T07:39:22;5.23;;;4.73;;
2129;SDS011;1071;52.544;13.374;2023-05-16T07:41:50;6.90;;;5.00;;
2129;SDS011;1071;52.544;13.374;2023-05-16T07:44:19;6.47;;;4.90;;
2129;SDS011;1071;52.544;13.374;2023-05-16T07:46:46;7.50;;;5.37;;
2129;SDS011;1071;52.544;13.374;2023-05-16T07:49:13;5.70;;;4.70;;
2129;SDS011;1071;52.544;13.374;2023-05-16T07:51:40;4.97;;;4.57;;
2129;SDS011;1071;52.544;13.374;2023-05-16T07:54:07;6.50;;;4.30;;
2129;SDS011;1071;52.544;13.374;2023-05-16T07:56:34;8.40;;;5.53;;
2129;SDS011;1071;52.544;13.374;2023-05-16T07:59:03;7.83;;;5.83;;
2129;SDS011;1071;52.544;13.374;2023-05-16T08:01:31;6.73;;;5.03;;
2129;SDS011;1071;52.544;13.374;2023-05-16T08:03:58;9.53;;;4.80;;
2129;SDS011;1071;52.544;13.374;2023-05-16T08:06:25;8.53;;;3.93;;
2129;SDS011;1071;52.544;13.374;2023-05-16T08:08:53;5.73;;;4.43;;
2129;SDS011;1071;52.544;13.374;2023-05-16T08:11:20;7.33;;;5.30;;
2129;SDS011;1071;52.544;13.374;2023-05-16T08:13:47;4.33;;;3.67;;
2129;SDS011;1071;52.544;13.374;2023-05-16T08:16:16;4.63;;;3.83;;
2129;SDS011;1071;52.544;13.374;2023-05-16T08:18:43;4.50;;;3.90;;
2129;SDS011;1071;52.544;13.374;2023-05-16T08:21:10;4.63;;;4.03;;
2129;SDS011;1071;52.544;13.374;2023-05-16T08:23:38;8.67;;;4.57;;
2129;SDS011;1071;52.544;13.374;2023-05-16T08:26:05;7.10;;;4.73;;
2129;SDS011;1071;52.544;13.374;2023-05-16T08:28:32;5.13;;;3.30;;
2129;SDS011;1071;52.544;13.374;2023-05-16T08:31:00;4.37;;;3.97;;
2129;SDS011;1071;52.544;13.374;2023-05-16T08:33:29;3.30;;;3.10;;
2129;SDS011;1071;52.544;13.374;2023-05-16T08:35:56;3.57;;;3.27;;
2129;SDS011;1071;52.544;13.374;2023-05-16T08:38:25;3.87;;;3.57;;
2129;SDS011;1071;52.544;13.374;2023-05-16T08:40:52;3.63;;;3.27;;
2129;SDS011;1071;52.544;13.374;2023-05-16T08:43:19;5.47;;;2.97;;
2129;SDS011;1071;52.544;13.374;2023-05-16T08:45:46;3.50;;;3.00;;
2129;SDS011;1071;52.544;13.374;2023-05-16T08:48:13;3.63;;;3.30;;
2129;SDS011;1071;52.544;13.374;2023-05-16T08:50:43;4.07;;;2.60;;
2129;SDS011;1071;52.544;13.374;2023-05-16T08:53:10;4.23;;;2.40;;
2129;SDS011;1071;52.544;13.374;2023-05-16T08:55:40;5.33;;;2.97;;
2129;SDS011;1071;52.544;13.374;2023-05-16T08:58:08;9.43;;;2.50;;
2129;SDS011;1071;52.544;13.374;2023-05-16T09:00:46;5.87;;;3.17;;
2129;SDS011;1071;52.544;13.374;2023-05-16T09:03:13;5.50;;;2.37;;
2129;SDS011;1071;52.544;13.374;2023-05-16T09:05:43;5.73;;;2.30;;
2129;SDS011;1071;52.544;13.374;2023-05-16T09:08:10;6.17;;;2.60;;
2129;SDS011;1071;52.544;13.374;2023-05-16T09:10:37;4.10;;;2.47;;
2129;SDS011;1071;52.544;13.374;2023-05-16T09:13:04;5.53;;;2.10;;
2129;SDS011;1071;52.544;13.374;2023-05-16T09:15:31;5.80;;;3.30;;
2129;SDS011;1071;52.544;13.374;2023-05-16T09:17:59;9.87;;;3.00;;
2129;SDS011;1071;52.544;13.374;2023-05-16T09:20:27;2.20;;;1.90;;
2129;SDS011;1071;52.544;13.374;2023-05-16T09:22:56;5.07;;;2.97;;
2129;SDS011;1071;52.544;13.374;2023-05-16T09:25:24;6.30;;;2.50;;
2129;SDS011;1071;52.544;13.374;2023-05-16T09:27:53;4.13;;;2.40;;
2129;SDS011;1071;52.544;13.374;2023-05-16T09:30:21;3.93;;;3.50;;
2129;SDS011;1071;52.544;13.374;2023-05-16T09:32:50;9.50;;;3.40;;
2129;SDS011;1071;52.544;13.374;2023-05-16T09:35:18;5.50;;;2.63;;
2129;SDS011;1071;52.544;13.374;2023-05-16T09:37:45;4.73;;;2.87;;
2129;SDS011;1071;52.544;13.374;2023-05-16T09:40:14;2.33;;;1.93;;
2129;SDS011;1071;52.544;13.374;2023-05-16T09:42:41;2.23;;;2.03;;
2129;SDS011;1071;52.544;13.374;2023-05-16T09:45:11;3.70;;;2.00;;
2129;SDS011;1071;52.544;13.374;2023-05-16T09:47:39;3.40;;;1.80;;
2129;SDS011;1071;52.544;13.374;2023-05-16T09:50:10;5.80;;;2.27;;
2129;SDS011;1071;52.544;13.374;2023-05-16T09:52:40;3.47;;;2.20;;
2129;SDS011;1071;52.544;13.374;2023-05-16T09:55:08;4.07;;;2.90;;
2129;SDS011;1071;52.544;13.374;2023-05-16T09:57:38;8.77;;;2.50;;
2129;SDS011;1071;52.544;13.374;2023-05-16T10:00:05;6.20;;;2.90;;
2129;SDS011;1071;52.544;13.374;2023-05-16T10:02:35;5.10;;;3.87;;
2129;SDS011;1071;52.544;13.374;2023-05-16T10:05:03;4.53;;;2.60;;
2129;SDS011;1071;52.544;13.374;2023-05-16T10:07:31;4.97;;;2.77;;
2129;SDS011;1071;52.544;13.374;2023-05-16T10:09:59;3.80;;;2.40;;
2129;SDS011;1071;52.544;13.374;2023-05-16T10:12:30;4.33;;;2.60;;
2129;SDS011;1071;52.544;13.374;2023-05-16T10:15:00;4.53;;;2.07;;
2129;SDS011;1071;52.544;13.374;2023-05-16T10:17:30;6.73;;;3.27;;
2129;SDS011;1071;52.544;13.374;2023-05-16T10:19:59;5.13;;;3.50;;
2129;SDS011;1071;52.544;13.374;2023-05-16T10:22:31;6.60;;;3.33;;
2129;SDS011;1071;52.544;13.374;2023-05-16T10:25:03;6.27;;;3.20;;
2129;SDS011;1071;52.544;13.374;2023-05-16T10:27:35;3.30;;;2.73;;
2129;SDS011;1071;52.544;13.374;2023-05-16T10:30:05;5.70;;;2.50;;
2129;SDS011;1071;52.544;13.374;2023-05-16T10:32:34;4.97;;;3.17;;
2129;SDS011;1071;52.544;13.374;2023-05-16T10:35:02;6.07;;;3.13;;
2129;SDS011;1071;52.544;13.374;2023-05-16T10:37:29;6.37;;;2.80;;
2129;SDS011;1071;52.544;13.374;2023-05-16T10:40:04;4.47;;;3.30;;
2129;SDS011;1071;52.544;13.374;2023-05-16T10:42:35;8.40;;;4.40;;
2129;SDS011;1071;52.544;13.374;2023-05-16T10:45:09;5.17;;;3.60;;
2129;SDS011;1071;52.544;13.374;2023-05-16T10:47:49;8.53;;;3.43;;
2129;SDS011;1071;52.544;13.374;2023-05-16T10:50:29;7.57;;;2.90;;
2129;SDS011;1071;52.544;13.374;2023-05-16T10:53:09;11.60;;;3.40;;
2129;SDS011;1071;52.544;13.374;2023-05-16T10:55:43;8.87;;;4.47;;
2129;SDS011;1071;52.544;13.374;2023-05-16T10:58:17;8.33;;;3.30;;
2129;SDS011;1071;52.544;13.374;2023-05-16T11:00:49;11.20;;;5.30;;
2129;SDS011;1071;52.544;13.374;2023-05-16T11:03:55;6.77;;;3.63;;
2129;SDS011;1071;52.544;13.374;2023-05-16T11:06:27;6.27;;;3.00;;
2129;SDS011;1071;52.544;13.374;2023-05-16T11:08:57;7.13;;;4.10;;
2129;SDS011;1071;52.544;13.374;2023-05-16T11:11:39;5.80;;;3.13;;
2129;SDS011;1071;52.544;13.374;2023-05-16T11:14:08;5.80;;;2.43;;
2129;SDS011;1071;52.544;13.374;2023-05-16T11:16:46;6.13;;;2.63;;
2129;SDS011;1071;52.544;13.374;2023-05-16T11:19:18;4.00;;;2.47;;
2129;SDS011;1071;52.544;13.374;2023-05-16T11:22:08;5.70;;;2.90;;
2129;SDS011;1071;52.544;13.374;2023-05-16T11:24:49;5.73;;;3.50;;
2129;SDS011;1071;52.544;13.374;2023-05-16T11:27:27;4.43;;;2.70;;
2129;SDS011;1071;52.544;13.374;2023-05-16T11:29:57;3.77;;;3.10;;
2129;SDS011;1071;52.544;13.374;2023-05-16T11:32:26;4.10;;;2.43;;
2129;SDS011;1071;52.544;13.374;2023-05-16T11:34:54;4.77;;;2.70;;
2129;SDS011;1071;52.544;13.374;2023-05-16T11:37:23;8.93;;;2.87;;
2129;SDS011;1071;52.544;13.374;2023-05-16T11:39:50;7.23;;;2.67;;
2129;SDS011;1071;52.544;13.374;2023-05-16T11:42:17;6.50;;;3.27;;
2129;SDS011;1071;52.544;13.374;2023-05-16T11:44:44;5.57;;;2.50;;
2129;SDS011;1071;52.544;13.374;2023-05-16T11:47:11;5.87;;;2.70;;
2129;SDS011;1071;52.544;13.374;2023-05-16T11:49:40;5.97;;;2.63;;
2129;SDS011;1071;52.544;13.374;2023-05-16T11:52:07;4.73;;;3.20;;
2129;SDS011;1071;52.544;13.374;2023-05-16T11:54:34;6.70;;;3.57;;
2129;SDS011;1071;52.544;13.374;2023-05-16T11:57:04;8.03;;;4.63;;
2129;SDS011;1071;52.544;13.374;2023-05-16T11:59:31;8.30;;;3.97;;
2129;SDS011;1071;52.544;13.374;2023-05-16T12:02:02;8.63;;;3.77;;
2129;SDS011;1071;52.544;13.374;2023-05-16T12:04:29;5.47;;;2.50;;
2129;SDS011;1071;52.544;13.374;2023-05-16T12:06:59;5.97;;;3.17;;
2129;SDS011;1071;52.544;13.374;2023-05-16T12:09:28;6.03;;;3.23;;
2129;SDS011;1071;52.544;13.374;2023-05-16T12:11:55;4.37;;;2.70;;
2129;SDS011;1071;52.544;13.374;2023-05-16T12:14:22;7.40;;;2.10;;
2129;SDS011;1071;52.544;13.374;2023-05-16T12:16:50;4.70;;;2.70;;
2129;SDS011;1071;52.544;13.374;2023-05-16T12:19:18;5.10;;;3.17;;
2129;SDS011;1071;52.544;13.374;2023-05-16T12:21:47;8.40;;;3.83;;
2129;SDS011;1071;52.544;13.374;2023-05-16T12:24:19;6.23;;;3.67;;
2129;SDS011;1071;52.544;13.374;2023-05-16T12:26:46;12.70;;;5.27;;
2129;SDS011;1071;52.544;13.374;2023-05-16T12:29:13;9.00;;;4.17;;
2129;SDS011;1071;52.544;13.374;2023-05-16T12:31:40;8.07;;;3.77;;
2129;SDS011;1071;52.544;13.374;2023-05-16T12:34:14;5.73;;;3.27;;
2129;SDS011;1071;52.544;13.374;2023-05-16T12:36:42;9.03;;;3.93;;
2129;SDS011;1071;52.544;13.374;2023-05-16T12:42:33;14.70;;;3.33;;
2129;SDS011;1071;52.544;13.374;2023-05-16T12:45:00;3.40;;;2.20;;
2129;SDS011;1071;52.544;13.374;2023-05-16T12:47:33;11.57;;;4.27;;
2129;SDS011;1071;52.544;13.374;2023-05-16T12:50:01;6.43;;;3.30;;
2129;SDS011;1071;52.544;13.374;2023-05-16T12:52:34;8.27;;;3.37;;
2129;SDS011;1071;52.544;13.374;2023-05-16T12:55:01;8.13;;;3.20;;
2129;SDS011;1071;52.544;13.374;2023-05-16T12:57:28;5.53;;;2.97;;
2129;SDS011;1071;52.544;13.374;2023-05-16T12:59:57;6.73;;;3.90;;
2129;SDS011;1071;52.544;13.374;2023-05-16T13:02:24;5.80;;;3.43;;
2129;SDS011;1071;52.544;13.374;2023-05-16T13:04:51;5.80;;;3.07;;
2129;SDS011;1071;52.544;13.374;2023-05-16T13:07:18;4.10;;;2.33;;
2129;SDS011;1071;52.544;13.374;2023-05-16T13:09:45;2.83;;;2.20;;
2129;SDS011;1071;52.544;13.374;2023-05-16T13:12:13;7.43;;;2.67;;
2129;SDS011;1071;52.544;13.374;2023-05-16T13:14:40;3.57;;;2.27;;
2129;SDS011;1071;52.544;13.374;2023-05-16T13:17:09;3.40;;;1.80;;
2129;SDS011;1071;52.544;13.374;2023-05-16T13:19:36;5.87;;;2.30;;
2129;SDS011;1071;52.544;13.374;2023-05-16T13:22:06;3.17;;;1.87;;
2129;SDS011;1071;52.544;13.374;2023-05-16T13:24:48;4.60;;;1.90;;
2129;SDS011;1071;52.544;13.374;2023-05-16T13:27:18;4.83;;;2.40;;
2129;SDS011;1071;52.544;13.374;2023-05-16T13:29:45;4.07;;;1.80;;
2129;SDS011;1071;52.544;13.374;2023-05-16T13:32:14;4.33;;;2.20;;
2129;SDS011;1071;52.544;13.374;2023-05-16T13:34:42;5.37;;;2.20;;
2129;SDS011;1071;52.544;13.374;2023-05-16T13:37:09;5.33;;;2.13;;
2129;SDS011;1071;52.544;13.374;2023-05-16T13:39:36;7.43;;;2.40;;
2129;SDS011;1071;52.544;13.374;2023-05-16T13:42:04;7.87;;;3.33;;
2129;SDS011;1071;52.544;13.374;2023-05-16T13:44:31;6.37;;;2.47;;
2129;SDS011;1071;52.544;13.374;2023-05-16T13:46:58;4.63;;;1.77;;
2129;SDS011;1071;52.544;13.374;2023-05-16T13:49:26;9.17;;;3.93;;
2129;SDS011;1071;52.544;13.374;2023-05-16T13:51:57;8.07;;;3.40;;
2129;SDS011;1071;52.544;13.374;2023-05-16T13:54:25;7.50;;;3.83;;
2129;SDS011;1071;52.544;13.374;2023-05-16T13:56:52;4.40;;;2.90;;
2129;SDS011;1071;52.544;13.374;2023-05-16T13:59:19;4.03;;;1.93;;
2129;SDS011;1071;52.544;13.374;2023-05-16T14:01:46;2.97;;;1.90;;
2129;SDS011;1071;52.544;13.374;2023-05-16T14:04:14;3.70;;;1.90;;
2129;SDS011;1071;52.544;13.374;2023-05-16T14:06:43;1.93;;;1.63;;
2129;SDS011;1071;52.544;13.374;2023-05-16T14:09:10;4.20;;;2.80;;
2129;SDS011;1071;52.544;13.374;2023-05-16T14:11:39;4.30;;;1.97;;
2129;SDS011;1071;52.544;13.374;2023-05-16T14:14:06;5.83;;;2.27;;
2129;SDS011;1071;52.544;13.374;2023-05-16T14:16:33;4.53;;;1.50;;
2129;SDS011;1071;52.544;13.374;2023-05-16T14:19:00;7.80;;;2.20;;
2129;SDS011;1071;52.544;13.374;2023-05-16T14:21:26;3.87;;;2.20;;
2129;SDS011;1071;52.544;13.374;2023-05-16T14:23:55;4.67;;;1.90;;
2129;SDS011;1071;52.544;13.374;2023-05-16T14:26:24;7.50;;;2.00;;
2129;SDS011;1071;52.544;13.374;2023-05-16T14:28:51;4.37;;;2.00;;
2129;SDS011;1071;52.544;13.374;2023-05-16T14:31:26;4.67;;;2.23;;
2129;SDS011;1071;52.544;13.374;2023-05-16T14:33:53;2.30;;;1.90;;
2129;SDS011;1071;52.544;13.374;2023-05-16T14:36:20;2.77;;;2.00;;
2129;SDS011;1071;52.544;13.374;2023-05-16T14:38:47;3.80;;;2.10;;
2129;SDS011;1071;52.544;13.374;2023-05-16T14:41:15;7.30;;;1.90;;
2129;SDS011;1071;52.544;13.374;2023-05-16T14:43:43;2.53;;;1.40;;
2129;SDS011;1071;52.544;13.374;2023-05-16T14:46:28;3.70;;;1.60;;
2129;SDS011;1071;52.544;13.374;2023-05-16T14:48:58;7.60;;;3.30;;
2129;SDS011;1071;52.544;13.374;2023-05-16T14:51:28;6.20;;;2.60;;
2129;SDS011;1071;52.544;13.374;2023-05-16T14:53:57;2.90;;;1.50;;
2129;SDS011;1071;52.544;13.374;2023-05-16T14:56:26;3.73;;;2.10;;
2129;SDS011;1071;52.544;13.374;2023-05-16T14:58:53;4.07;;;1.40;;
2129;SDS011;1071;52.544;13.374;2023-05-16T15:01:21;3.37;;;2.00;;
2129;SDS011;1071;52.544;13.374;2023-05-16T15:03:50;5.13;;;1.90;;